Time;durP1;ratioP1;P1;durP2;ratioP2;P2;SDS_P1;SDS_P2;PMS_P1;PMS_P2;Temp;Humidity;BMP_temperature;BMP_pressure;BME280_temperature;BME280_humidity;BME280_pressure;Samples;Min_cycle;Max_cycle;Signal;HPM_P1;HPM_P2
2022/04/21 00:02:16;;;;;;;;;;;;;;;;;;5092026;28;19908;-86
2022/04/21 00:04:42;;;;;;;;;;;;;;;;;;5074576;28;19926;-87
2022/04/21 00:07:07;;;;;;;;;;;;;;;;;;5076260;28;19931;-86
2022/04/21 00:09:33;;;;;;;;;;;;;;;;;;5075650;28;19958;-76
2022/04/21 00:11:59;;;;;;;;;;;;;;;;;;5075507;28;20245;-87
2022/04/21 00:14:25;;;;;;;;;;;;;;;;;;5093592;28;19908;-87
2022/04/21 00:16:51;;;;;;;;;;;;;;;;;;5086617;28;19943;-87
2022/04/21 00:19:17;;;;;;;;;;;;;;;;;;5092357;28;19954;-87
2022/04/21 00:24:27;;;;;;;;;;;;;;;;;;5093463;28;19953;-87
2022/04/21 00:26:53;;;;;;;;;;;;;;;;;;5092823;28;20559;-87
2022/04/21 00:29:19;;;;;;;;;;;;;;;;;;5095239;28;19908;-87
2022/04/21 00:31:45;;;;;;;;;;;;;;;;;;5094147;28;20323;-87
2022/04/21 00:34:11;;;;;;;;;;;;;;;;;;5113503;28;19908;-86
2022/04/21 00:36:37;;;;;;;;;;;;;;;;;;5075868;28;19920;-85
2022/04/21 00:39:03;;;;;;;;;;;;;;;;;;5075246;28;19908;-87
2022/04/21 00:41:29;;;;;;;;;;;;;;;;;;5093253;28;20459;-87
2022/04/21 00:43:54;;;;;;;;;;;;;;;;;;5092374;28;19904;-87
2022/04/21 00:46:23;;;;;;;;;;;;;;;;;;5093226;28;20359;-86
2022/04/21 00:48:49;;;;;;;;;;;;;;;;;;5074741;28;20263;-86
2022/04/21 00:51:15;;;;;;;;;;;;;;;;;;5092892;28;19915;-86
2022/04/21 00:53:41;;;;;;;;;;;;;;;;;;5092794;28;19908;-86
2022/04/21 00:56:07;;;;;;;;;;;;;;;;;;5093738;28;19935;-86
2022/04/21 00:58:33;;;;;;;;;;;;;;;;;;5075121;28;19948;-86
2022/04/21 01:00:58;;;;;;;;;;;;;;;;;;5094144;28;20255;-86
2022/04/21 01:03:24;;;;;;;;;;;;;;;;;;5096629;28;19915;-86
2022/04/21 01:05:51;;;;;;;;;;;;;;;;;;5077708;28;19956;-86
2022/04/21 01:08:17;;;;;;;;;;;;;;;;;;5097624;28;20001;-86
2022/04/21 01:10:43;;;;;;;;;;;;;;;;;;5077946;28;20368;-85
2022/04/21 01:13:09;;;;;;;;;;;;;;;;;;5078322;28;19908;-87
2022/04/21 01:15:35;;;;;;;;;;;;;;;;;;5097063;28;19923;-76
2022/04/21 01:18:00;;;;;;;;;;;;;;;;;;5095594;28;19908;-85
2022/04/21 01:20:26;;;;;;;;;;;;;;;;;;5078507;28;19961;-86
2022/04/21 01:22:52;;;;;;;;;;;;;;;;;;5114648;28;20267;-85
2022/04/21 01:25:19;;;;;;;;;;;;;;;;;;5099198;28;19931;-85
2022/04/21 01:27:45;;;;;;;;;;;;;;;;;;5098481;28;20304;-86
2022/04/21 01:30:11;;;;;;;;;;;;;;;;;;5117190;28;20042;-85
2022/04/21 01:32:37;;;;;;;;;;;;;;;;;;5116329;28;19951;-78
2022/04/21 01:35:04;;;;;;;;;;;;;;;;;;5116800;28;19912;-85
2022/04/21 01:43:12;;;;;;;;;;;;;;;;;;5082102;28;19908;-86
2022/04/21 01:45:38;;;;;;;;;;;;;;;;;;5116725;28;20002;-76
2022/04/21 01:48:04;;;;;;;;;;;;;;;;;;5116748;28;19947;-86
2022/04/21 01:50:30;;;;;;;;;;;;;;;;;;5116658;28;19915;-86
2022/04/21 01:52:56;;;;;;;;;;;;;;;;;;5116056;28;20197;-86
2022/04/21 01:55:22;;;;;;;;;;;;;;;;;;5116446;28;19924;-86
2022/04/21 01:57:48;;;;;;;;;;;;;;;;;;5114764;28;19908;-87
2022/04/21 02:00:14;;;;;;;;;;;;;;;;;;5097736;28;19908;-87
2022/04/21 02:02:40;;;;;;;;;;;;;;;;;;5097744;28;20014;-78
2022/04/21 02:05:05;;;;;;;;;;;;;;;;;;5098054;28;19908;-87
2022/04/21 02:07:31;;;;;;;;;;;;;;;;;;5098558;28;19914;-86
2022/04/21 02:09:57;;;;;;;;;;;;;;;;;;5097328;28;19941;-87
2022/04/21 02:12:23;;;;;;;;;;;;;;;;;;5096770;28;19911;-87
2022/04/21 02:14:49;;;;;;;;;;;;;;;;;;5114859;28;19953;-86
2022/04/21 02:17:15;;;;;;;;;;;;;;;;;;5116017;28;20347;-85
2022/04/21 02:19:41;;;;;;;;;;;;;;;;;;5096950;28;19953;-76
2022/04/21 02:22:07;;;;;;;;;;;;;;;;;;5115796;28;19964;-87
2022/04/21 02:24:33;;;;;;;;;;;;;;;;;;5097440;28;19977;-85
2022/04/21 02:26:59;;;;;;;;;;;;;;;;;;5115767;28;19915;-85
2022/04/21 02:29:24;;;;;;;;;;;;;;;;;;5097039;28;19908;-86
2022/04/21 02:31:50;;;;;;;;;;;;;;;;;;5114679;28;19907;-86
2022/04/21 02:34:16;;;;;;;;;;;;;;;;;;5115694;28;19919;-87
2022/04/21 02:36:42;;;;;;;;;;;;;;;;;;5114794;28;20406;-76
2022/04/21 02:39:08;;;;;;;;;;;;;;;;;;5097651;28;19908;-87
2022/04/21 02:41:34;;;;;;;;;;;;;;;;;;5115455;28;19908;-87
2022/04/21 02:44:00;;;;;;;;;;;;;;;;;;5096588;28;20371;-86
2022/04/21 02:46:26;;;;;;;;;;;;;;;;;;5115616;28;19908;-86
2022/04/21 02:48:52;;;;;;;;;;;;;;;;;;5115238;28;20272;-86
2022/04/21 02:51:17;;;;;;;;;;;;;;;;;;5116191;28;19950;-86
2022/04/21 02:59:13;;;;;;;;;;;;;;;;;;5114740;28;19962;-85
2022/04/21 03:01:39;;;;;;;;;;;;;;;;;;5115137;28;19911;-85
2022/04/21 03:04:04;;;;;;;;;;;;;;;;;;5114359;28;20209;-85
2022/04/21 03:06:30;;;;;;;;;;;;;;;;;;5115443;28;19914;-85
2022/04/21 03:08:56;;;;;;;;;;;;;;;;;;5114704;28;20023;-86
2022/04/21 03:11:22;;;;;;;;;;;;;;;;;;5115047;28;19953;-86
2022/04/21 03:13:48;;;;;;;;;;;;;;;;;;5114166;28;19930;-86
2022/04/21 03:16:14;;;;;;;;;;;;;;;;;;5096986;28;19916;-86
2022/04/21 03:18:40;;;;;;;;;;;;;;;;;;5096746;28;19975;-85
2022/04/21 03:26:35;;;;;;;;;;;;;;;;;;5115032;28;19930;-86
2022/04/21 03:29:01;;;;;;;;;;;;;;;;;;5113566;28;19908;-86
2022/04/21 03:31:26;;;;;;;;;;;;;;;;;;5114909;28;19919;-87
2022/04/21 03:33:53;;;;;;;;;;;;;;;;;;5114353;28;19966;-85
2022/04/21 03:36:20;;;;;;;;;;;;;;;;;;5096584;28;19915;-84
2022/04/21 03:38:46;;;;;;;;;;;;;;;;;;5113881;28;19914;-77
2022/04/21 03:41:12;;;;;;;;;;;;;;;;;;5114926;28;19916;-86
2022/04/21 03:43:38;;;;;;;;;;;;;;;;;;5114044;28;19994;-86
2022/04/21 03:46:04;;;;;;;;;;;;;;;;;;5113310;28;20353;-85
2022/04/21 03:48:30;;;;;;;;;;;;;;;;;;5096387;28;19916;-86
2022/04/21 03:50:56;;;;;;;;;;;;;;;;;;5096166;28;20015;-86
2022/04/21 03:53:22;;;;;;;;;;;;;;;;;;5114282;28;19930;-86
2022/04/21 03:55:48;;;;;;;;;;;;;;;;;;5112863;28;20015;-76
2022/04/21 03:58:13;;;;;;;;;;;;;;;;;;5113582;28;19908;-86
2022/04/21 04:00:39;;;;;;;;;;;;;;;;;;5114301;28;19908;-86
2022/04/21 04:03:06;;;;;;;;;;;;;;;;;;5094811;28;20032;-85
2022/04/21 04:05:31;;;;;;;;;;;;;;;;;;5095707;28;20400;-86
2022/04/21 04:10:52;;;;;;;;;;;;;;;;;;5113995;28;19954;-86
2022/04/21 04:13:18;;;;;;;;;;;;;;;;;;5114039;28;19908;-86
2022/04/21 04:15:51;;;;;;;;;;;;;;;;;;5095650;28;19916;-85
2022/04/21 04:18:17;;;;;;;;;;;;;;;;;;5095609;28;19936;-86
2022/04/21 04:20:43;;;;;;;;;;;;;;;;;;5113706;28;20003;-85
2022/04/21 04:23:09;;;;;;;;;;;;;;;;;;5095357;28;20313;-86
2022/04/21 04:25:37;;;;;;;;;;;;;;;;;;5113276;28;20016;-85
2022/04/21 04:28:04;;;;;;;;;;;;;;;;;;5112531;28;19908;-85
2022/04/21 04:30:30;;;;;;;;;;;;;;;;;;5095314;28;20275;-85
2022/04/21 04:32:56;;;;;;;;;;;;;;;;;;5112826;28;19908;-85
2022/04/21 04:35:22;;;;;;;;;;;;;;;;;;5114681;28;20323;-85
2022/04/21 04:37:48;;;;;;;;;;;;;;;;;;5099195;28;20002;-76
2022/04/21 04:40:14;;;;;;;;;;;;;;;;;;5117243;28;20003;-85
2022/04/21 04:42:40;;;;;;;;;;;;;;;;;;5100014;28;19915;-86
2022/04/21 04:47:51;;;;;;;;;;;;;;;;;;5112005;28;19919;-77
2022/04/21 04:50:17;;;;;;;;;;;;;;;;;;5105981;28;19912;-85
2022/04/21 04:52:43;;;;;;;;;;;;;;;;;;5096989;28;19908;-84
2022/04/21 04:55:12;;;;;;;;;;;;;;;;;;5095979;28;20252;-85
2022/04/21 04:57:39;;;;;;;;;;;;;;;;;;5097109;28;19912;-85
2022/04/21 05:00:05;;;;;;;;;;;;;;;;;;5097960;28;20370;-85
2022/04/21 05:02:31;;;;;;;;;;;;;;;;;;5099083;28;20003;-85
2022/04/21 05:04:57;;;;;;;;;;;;;;;;;;5110077;28;20280;-85
2022/04/21 05:07:23;;;;;;;;;;;;;;;;;;5098983;28;19908;-86
2022/04/21 05:09:48;;;;;;;;;;;;;;;;;;5099344;28;20350;-76
2022/04/21 05:12:14;;;;;;;;;;;;;;;;;;5098634;28;19914;-86
2022/04/21 05:14:40;;;;;;;;;;;;;;;;;;5117314;28;19914;-86
2022/04/21 05:17:06;;;;;;;;;;;;;;;;;;5116145;28;20374;-87
2022/04/21 05:19:32;;;;;;;;;;;;;;;;;;5098764;28;19915;-87
2022/04/21 05:21:58;;;;;;;;;;;;;;;;;;5116326;28;19908;-85
2022/04/21 05:24:24;;;;;;;;;;;;;;;;;;5112750;28;19912;-86
2022/04/21 05:26:50;;;;;;;;;;;;;;;;;;5095771;28;19916;-78
2022/04/21 05:32:01;;;;;;;;;;;;;;;;;;5094741;28;19947;-84
2022/04/21 05:34:27;;;;;;;;;;;;;;;;;;5096047;28;19912;-87
2022/04/21 05:36:53;;;;;;;;;;;;;;;;;;5094144;28;20292;-76
2022/04/21 05:39:19;;;;;;;;;;;;;;;;;;5115774;28;20302;-77
2022/04/21 05:41:45;;;;;;;;;;;;;;;;;;5098492;28;19908;-84
2022/04/21 05:44:11;;;;;;;;;;;;;;;;;;5115212;28;19908;-82
2022/04/21 05:46:36;;;;;;;;;;;;;;;;;;5096956;28;20302;-82
2022/04/21 05:49:02;;;;;;;;;;;;;;;;;;5094859;28;19908;-75
2022/04/21 05:51:28;;;;;;;;;;;;;;;;;;5095808;28;19908;-86
2022/04/21 05:53:54;;;;;;;;;;;;;;;;;;5094914;28;20277;-73
2022/04/21 05:56:20;;;;;;;;;;;;;;;;;;5095447;28;19950;-82
2022/04/21 05:58:46;;;;;;;;;;;;;;;;;;5100313;28;20016;-79
2022/04/21 06:01:13;;;;;;;;;;;;;;;;;;5114883;28;19908;-79
2022/04/21 06:03:39;;;;;;;;;;;;;;;;;;5111419;28;19977;-78
2022/04/21 06:06:05;;;;;;;;;;;;;;;;;;5115067;28;19908;-77
2022/04/21 06:08:30;;;;;;;;;;;;;;;;;;5115739;28;20416;-78
2022/04/21 06:10:56;;;;;;;;;;;;;;;;;;5114778;28;20359;-75
2022/04/21 06:13:22;;;;;;;;;;;;;;;;;;5097268;28;19908;-77
2022/04/21 06:15:48;;;;;;;;;;;;;;;;;;5115421;28;19923;-80
2022/04/21 06:18:14;;;;;;;;;;;;;;;;;;5112467;28;20397;-79
2022/04/21 06:20:40;;;;;;;;;;;;;;;;;;5108320;28;20318;-79
2022/04/21 06:23:06;;;;;;;;;;;;;;;;;;5075941;28;19908;-79
2022/04/21 06:25:32;;;;;;;;;;;;;;;;;;5094794;28;19927;-78
2022/04/21 06:27:58;;;;;;;;;;;;;;;;;;5108352;28;19908;-79
2022/04/21 06:30:24;;;;;;;;;;;;;;;;;;5115878;28;19982;-76
2022/04/21 06:32:50;;;;;;;;;;;;;;;;;;5115482;28;19945;-77
2022/04/21 06:35:16;;;;;;;;;;;;;;;;;;5113635;28;20410;-83
2022/04/21 06:37:42;;;;;;;;;;;;;;;;;;5115513;28;19904;-82
2022/04/21 06:40:08;;;;;;;;;;;;;;;;;;5096486;28;19910;-82
2022/04/21 06:42:35;;;;;;;;;;;;;;;;;;5115571;28;19904;-82
2022/04/21 06:48:04;;;;;;;;;;;;;;;;;;5115232;28;19910;-80
2022/04/21 06:50:30;;;;;;;;;;;;;;;;;;5096996;28;19911;-81
2022/04/21 06:52:56;;;;;;;;;;;;;;;;;;5096702;28;20271;-81
2022/04/21 06:55:22;;;;;;;;;;;;;;;;;;5115024;28;19977;-80
2022/04/21 06:57:48;;;;;;;;;;;;;;;;;;5114514;28;19910;-81
2022/04/21 07:00:14;;;;;;;;;;;;;;;;;;5114457;28;20343;-81
2022/04/21 07:02:41;;;;;;;;;;;;;;;;;;5115150;28;19945;-82
2022/04/21 07:05:07;;;;;;;;;;;;;;;;;;5114151;28;19958;-81
2022/04/21 07:07:33;;;;;;;;;;;;;;;;;;5114845;28;19904;-80
2022/04/21 07:10:00;;;;;;;;;;;;;;;;;;5114278;28;19904;-80
2022/04/21 07:12:26;;;;;;;;;;;;;;;;;;5115068;28;19942;-82
2022/04/21 07:14:52;;;;;;;;;;;;;;;;;;5114763;28;19904;-83
2022/04/21 07:17:20;;;;;;;;;;;;;;;;;;5114199;28;19919;-82
2022/04/21 07:19:46;;;;;;;;;;;;;;;;;;5115071;28;19904;-81
2022/04/21 07:22:11;;;;;;;;;;;;;;;;;;5114197;28;19904;-82
2022/04/21 07:24:37;;;;;;;;;;;;;;;;;;5114699;28;19922;-82
2022/04/21 07:27:03;;;;;;;;;;;;;;;;;;5113722;28;19911;-82
2022/04/21 07:29:30;;;;;;;;;;;;;;;;;;5114582;28;19957;-83
2022/04/21 07:31:56;;;;;;;;;;;;;;;;;;5114301;28;20408;-82
2022/04/21 07:34:23;;;;;;;;;;;;;;;;;;5114882;28;19957;-82
2022/04/21 07:36:49;;;;;;;;;;;;;;;;;;5114229;28;19964;-82
2022/04/21 07:39:15;;;;;;;;;;;;;;;;;;5114586;28;19907;-82
2022/04/21 07:41:41;;;;;;;;;;;;;;;;;;5114675;28;19903;-83
2022/04/21 07:44:07;;;;;;;;;;;;;;;;;;5113915;28;19932;-82
2022/04/21 07:46:33;;;;;;;;;;;;;;;;;;5114460;28;19903;-82
2022/04/21 07:51:44;;;;;;;;;;;;;;;;;;5114110;28;20259;-83
2022/04/21 07:54:09;;;;;;;;;;;;;;;;;;5113873;28;19904;-83
2022/04/21 07:56:36;;;;;;;;;;;;;;;;;;5114471;28;19919;-81
2022/04/21 07:59:02;;;;;;;;;;;;;;;;;;5113161;28;20363;-81
2022/04/21 08:01:28;;;;;;;;;;;;;;;;;;5095944;28;19957;-81
2022/04/21 08:03:54;;;;;;;;;;;;;;;;;;5113913;28;19998;-81
2022/04/21 08:06:19;;;;;;;;;;;;;;;;;;5113671;28;19908;-80
2022/04/21 08:08:45;;;;;;;;;;;;;;;;;;5113890;28;19904;-81
2022/04/21 08:11:11;;;;;;;;;;;;;;;;;;5112500;28;20266;-81
2022/04/21 08:13:37;;;;;;;;;;;;;;;;;;5113781;28;19908;-81
2022/04/21 08:16:03;;;;;;;;;;;;;;;;;;5113085;28;19953;-81
2022/04/21 08:18:29;;;;;;;;;;;;;;;;;;5113741;28;19998;-82
2022/04/21 08:20:58;;;;;;;;;;;;;;;;;;5114280;28;19903;-82
2022/04/21 08:23:25;;;;;;;;;;;;;;;;;;5113353;28;20309;-83
2022/04/21 08:34:04;;;;;;;;;;;;;;;;;;5113060;28;19911;-84
2022/04/21 08:36:30;;;;;;;;;;;;;;;;;;5113863;28;19912;-82
2022/04/21 08:38:56;;;;;;;;;;;;;;;;;;5113744;28;19955;-83
2022/04/21 08:41:22;;;;;;;;;;;;;;;;;;5113069;28;20349;-85
2022/04/21 08:43:48;;;;;;;;;;;;;;;;;;5114140;28;19986;-80
2022/04/21 08:46:14;;;;;;;;;;;;;;;;;;5094876;28;20293;-81
2022/04/21 08:48:40;;;;;;;;;;;;;;;;;;5113429;28;19904;-82
2022/04/21 08:51:06;;;;;;;;;;;;;;;;;;5113087;28;19904;-81
2022/04/21 08:53:32;;;;;;;;;;;;;;;;;;5113430;28;19911;-80
2022/04/21 08:55:58;;;;;;;;;;;;;;;;;;5113284;28;19920;-80
2022/04/21 08:58:24;;;;;;;;;;;;;;;;;;5112738;28;20037;-81
2022/04/21 09:00:53;;;;;;;;;;;;;;;;;;5113194;28;19945;-79
2022/04/21 09:03:19;;;;;;;;;;;;;;;;;;5112771;28;19904;-80
2022/04/21 09:05:45;;;;;;;;;;;;;;;;;;5113470;28;19956;-80
2022/04/21 09:08:11;;;;;;;;;;;;;;;;;;5112802;28;19907;-81
2022/04/21 09:10:37;;;;;;;;;;;;;;;;;;5113534;28;20301;-81
2022/04/21 09:13:03;;;;;;;;;;;;;;;;;;5094482;28;19908;-71
2022/04/21 09:15:29;;;;;;;;;;;;;;;;;;5113569;28;20357;-82
2022/04/21 09:17:58;;;;;;;;;;;;;;;;;;5113274;28;19998;-82
2022/04/21 09:20:24;;;;;;;;;;;;;;;;;;5112756;28;19947;-82
2022/04/21 09:22:52;;;;;;;;;;;;;;;;;;5116639;28;19911;-82
2022/04/21 09:25:18;;;;;;;;;;;;;;;;;;5116549;28;19923;-82
2022/04/21 09:27:44;;;;;;;;;;;;;;;;;;5117204;28;20021;-81
2022/04/21 09:30:12;;;;;;;;;;;;;;;;;;5116514;28;19970;-82
2022/04/21 09:32:38;;;;;;;;;;;;;;;;;;5117237;28;19907;-83
2022/04/21 09:35:04;;;;;;;;;;;;;;;;;;5114198;28;20368;-73
2022/04/21 09:37:30;;;;;;;;;;;;;;;;;;5113332;28;20010;-85
2022/04/21 09:39:56;;;;;;;;;;;;;;;;;;5108132;28;20313;-83
2022/04/21 09:42:22;;;;;;;;;;;;;;;;;;5105153;28;19994;-82
2022/04/21 09:47:32;;;;;;;;;;;;;;;;;;5106731;28;19941;-83
2022/04/21 09:50:00;;;;;;;;;;;;;;;;;;5105365;28;20007;-84
2022/04/21 09:52:27;;;;;;;;;;;;;;;;;;5087181;28;19972;-82
2022/04/21 09:54:53;;;;;;;;;;;;;;;;;;5106673;28;19908;-81
2022/04/21 09:57:19;;;;;;;;;;;;;;;;;;5103915;28;19965;-83
2022/04/21 09:59:45;;;;;;;;;;;;;;;;;;5105888;28;19999;-83
2022/04/21 10:02:11;;;;;;;;;;;;;;;;;;5110590;28;19926;-84
2022/04/21 10:04:36;;;;;;;;;;;;;;;;;;5093012;28;20352;-80
2022/04/21 10:07:02;;;;;;;;;;;;;;;;;;5115162;28;19908;-86
2022/04/21 10:09:29;;;;;;;;;;;;;;;;;;5095779;28;19907;-81
2022/04/21 10:11:57;;;;;;;;;;;;;;;;;;5097271;28;19915;-84
2022/04/21 10:14:23;;;;;;;;;;;;;;;;;;5116371;28;19915;-86
2022/04/21 10:16:50;;;;;;;;;;;;;;;;;;5098265;28;19916;-82
2022/04/21 10:19:19;;;;;;;;;;;;;;;;;;5116578;28;20347;-85
2022/04/21 10:21:48;;;;;;;;;;;;;;;;;;5108907;28;19911;-82
2022/04/21 10:24:14;;;;;;;;;;;;;;;;;;5114676;28;19907;-84
2022/04/21 10:26:40;;;;;;;;;;;;;;;;;;5109188;28;20294;-79
2022/04/21 10:29:06;;;;;;;;;;;;;;;;;;5114657;28;19912;-73
2022/04/21 10:31:32;;;;;;;;;;;;;;;;;;5113766;28;19908;-84
2022/04/21 10:33:58;;;;;;;;;;;;;;;;;;5114997;28;20305;-78
2022/04/21 10:36:23;;;;;;;;;;;;;;;;;;5115024;28;19916;-87
2022/04/21 10:38:49;;;;;;;;;;;;;;;;;;5115717;28;19908;-78
2022/04/21 10:41:15;;;;;;;;;;;;;;;;;;5114856;28;20368;-78
2022/04/21 10:43:41;;;;;;;;;;;;;;;;;;5115555;28;19907;-79
2022/04/21 10:46:07;;;;;;;;;;;;;;;;;;5115269;28;20442;-78
2022/04/21 10:48:33;;;;;;;;;;;;;;;;;;5115605;28;19907;-76
2022/04/21 10:50:59;;;;;;;;;;;;;;;;;;5111132;28;20385;-83
2022/04/21 10:58:54;;;;;;;;;;;;;;;;;;5107449;28;20338;-82
2022/04/21 11:01:20;;;;;;;;;;;;;;;;;;5094972;28;19916;-84
2022/04/21 11:03:46;;;;;;;;;;;;;;;;;;5074104;28;19919;-83
2022/04/21 11:06:12;;;;;;;;;;;;;;;;;;5092572;28;19939;-81
2022/04/21 11:08:38;;;;;;;;;;;;;;;;;;5092284;28;19912;-79
2022/04/21 11:11:03;;;;;;;;;;;;;;;;;;5073907;28;19965;-80
2022/04/21 11:13:29;;;;;;;;;;;;;;;;;;5072908;28;19999;-83
2022/04/21 11:15:58;;;;;;;;;;;;;;;;;;5092304;28;19916;-81
2022/04/21 11:18:23;;;;;;;;;;;;;;;;;;5091945;28;19992;-84
2022/04/21 11:20:49;;;;;;;;;;;;;;;;;;5096606;28;20002;-80
2022/04/21 11:23:15;;;;;;;;;;;;;;;;;;5107271;28;19912;-84
2022/04/21 11:25:41;;;;;;;;;;;;;;;;;;5087457;28;19924;-85
2022/04/21 11:28:07;;;;;;;;;;;;;;;;;;5112077;28;20461;-81
2022/04/21 11:30:33;;;;;;;;;;;;;;;;;;5111591;28;19908;-81
2022/04/21 11:32:59;;;;;;;;;;;;;;;;;;5111554;28;20330;-80
2022/04/21 11:35:25;;;;;;;;;;;;;;;;;;5111586;28;19961;-80
2022/04/21 11:37:51;;;;;;;;;;;;;;;;;;5112037;28;19947;-79
2022/04/21 11:40:17;;;;;;;;;;;;;;;;;;5111413;28;19967;-81
2022/04/21 11:42:43;;;;;;;;;;;;;;;;;;5105732;28;20032;-78
2022/04/21 11:45:09;;;;;;;;;;;;;;;;;;5111831;28;20297;-71
2022/04/21 11:47:35;;;;;;;;;;;;;;;;;;5112395;28;19907;-83
2022/04/21 11:50:01;;;;;;;;;;;;;;;;;;5091552;28;20291;-85
2022/04/21 11:52:27;;;;;;;;;;;;;;;;;;5111700;28;19939;-84
2022/04/21 11:54:53;;;;;;;;;;;;;;;;;;5111340;28;19916;-82
2022/04/21 11:57:19;;;;;;;;;;;;;;;;;;5110081;28;19924;-84
2022/04/21 11:59:45;;;;;;;;;;;;;;;;;;5092127;28;19916;-77
2022/04/21 12:07:40;;;;;;;;;;;;;;;;;;5102825;28;19922;-79
2022/04/21 12:10:09;;;;;;;;;;;;;;;;;;5086160;28;19911;-81
2022/04/21 12:12:35;;;;;;;;;;;;;;;;;;5110444;28;20389;-78
2022/04/21 12:15:01;;;;;;;;;;;;;;;;;;5112739;28;19920;-84
2022/04/21 12:17:29;;;;;;;;;;;;;;;;;;5111924;28;19920;-82
2022/04/21 12:19:54;;;;;;;;;;;;;;;;;;5106445;28;19944;-81
2022/04/21 12:22:21;;;;;;;;;;;;;;;;;;5099113;28;19912;-82
2022/04/21 12:24:47;;;;;;;;;;;;;;;;;;5071277;28;19924;-83
2022/04/21 12:27:13;;;;;;;;;;;;;;;;;;5071336;28;20482;-82
2022/04/21 12:29:39;;;;;;;;;;;;;;;;;;5072700;28;19917;-84
2022/04/21 12:32:05;;;;;;;;;;;;;;;;;;5071821;28;19909;-84
2022/04/21 12:34:31;;;;;;;;;;;;;;;;;;5070061;28;20312;-83
2022/04/21 12:36:57;;;;;;;;;;;;;;;;;;5071703;28;19923;-81
2022/04/21 12:39:23;;;;;;;;;;;;;;;;;;5071109;28;20003;-81
2022/04/21 12:41:49;;;;;;;;;;;;;;;;;;5085973;28;19940;-81
2022/04/21 12:44:16;;;;;;;;;;;;;;;;;;5083324;28;19993;-81
2022/04/21 12:46:42;;;;;;;;;;;;;;;;;;5072708;28;19913;-81
2022/04/21 12:49:08;;;;;;;;;;;;;;;;;;5069851;28;19922;-81
2022/04/21 12:51:35;;;;;;;;;;;;;;;;;;5069250;28;19912;-82
2022/04/21 12:54:01;;;;;;;;;;;;;;;;;;5069142;28;20245;-84
2022/04/21 12:56:27;;;;;;;;;;;;;;;;;;5069595;28;19935;-84
2022/04/21 12:58:53;;;;;;;;;;;;;;;;;;5073977;28;19916;-83
2022/04/21 13:01:18;;;;;;;;;;;;;;;;;;5091805;28;20343;-82
2022/04/21 13:03:44;;;;;;;;;;;;;;;;;;5094457;28;19919;-84
2022/04/21 13:06:10;;;;;;;;;;;;;;;;;;5095182;28;20296;-82
2022/04/21 13:08:36;;;;;;;;;;;;;;;;;;5094090;28;19916;-83
2022/04/21 13:11:02;;;;;;;;;;;;;;;;;;5090544;28;20349;-83
2022/04/21 13:13:29;;;;;;;;;;;;;;;;;;5092241;28;19920;-84
2022/04/21 13:15:55;;;;;;;;;;;;;;;;;;5094799;28;19923;-84
2022/04/21 13:18:22;;;;;;;;;;;;;;;;;;5093682;28;19908;-84
2022/04/21 13:23:32;;;;;;;;;;;;;;;;;;5091364;28;19923;-80
2022/04/21 13:25:58;;;;;;;;;;;;;;;;;;5102036;28;19928;-83
2022/04/21 13:28:24;;;;;;;;;;;;;;;;;;5114570;28;20263;-84
2022/04/21 13:33:34;;;;;;;;;;;;;;;;;;5116257;28;20512;-85
2022/04/21 13:36:00;;;;;;;;;;;;;;;;;;5116866;28;20014;-86
2022/04/21 13:38:27;;;;;;;;;;;;;;;;;;5116406;28;19911;-85
2022/04/21 13:40:53;;;;;;;;;;;;;;;;;;5116867;28;19916;-85
2022/04/21 13:43:19;;;;;;;;;;;;;;;;;;5098007;28;19908;-86
2022/04/21 13:45:45;;;;;;;;;;;;;;;;;;5116940;28;19907;-84
2022/04/21 13:48:10;;;;;;;;;;;;;;;;;;5116557;28;19954;-85
2022/04/21 13:50:36;;;;;;;;;;;;;;;;;;5116136;28;19918;-84
2022/04/21 13:53:03;;;;;;;;;;;;;;;;;;5116195;28;19907;-84
2022/04/21 13:55:29;;;;;;;;;;;;;;;;;;5115586;28;20022;-84
2022/04/21 13:57:54;;;;;;;;;;;;;;;;;;5115952;28;20358;-84
2022/04/21 14:00:24;;;;;;;;;;;;;;;;;;5116029;28;19908;-84
2022/04/21 14:02:50;;;;;;;;;;;;;;;;;;5116443;28;19907;-85
2022/04/21 14:05:15;;;;;;;;;;;;;;;;;;5116549;28;19930;-85
2022/04/21 14:07:41;;;;;;;;;;;;;;;;;;5114248;28;19915;-84
2022/04/21 14:10:07;;;;;;;;;;;;;;;;;;5116062;28;20256;-85
2022/04/21 14:12:33;;;;;;;;;;;;;;;;;;5115545;28;19907;-85
2022/04/21 14:15:00;;;;;;;;;;;;;;;;;;5115774;28;19908;-84
2022/04/21 14:17:26;;;;;;;;;;;;;;;;;;5115430;28;19951;-85
2022/04/21 14:19:52;;;;;;;;;;;;;;;;;;5097574;28;19915;-84
2022/04/21 14:22:18;;;;;;;;;;;;;;;;;;5116026;28;19934;-84
2022/04/21 14:24:44;;;;;;;;;;;;;;;;;;5116019;28;20492;-84
2022/04/21 14:27:10;;;;;;;;;;;;;;;;;;5115444;28;19916;-85
2022/04/21 14:29:36;;;;;;;;;;;;;;;;;;5115362;28;19907;-85
2022/04/21 14:32:03;;;;;;;;;;;;;;;;;;5097648;28;19908;-85
2022/04/21 14:34:30;;;;;;;;;;;;;;;;;;5115226;28;19908;-85
2022/04/21 14:36:57;;;;;;;;;;;;;;;;;;5097676;28;20256;-83
2022/04/21 14:44:52;;;;;;;;;;;;;;;;;;5115386;28;20283;-83
2022/04/21 14:47:18;;;;;;;;;;;;;;;;;;5115452;28;19912;-84
2022/04/21 14:49:44;;;;;;;;;;;;;;;;;;5115211;28;19960;-84
2022/04/21 14:52:11;;;;;;;;;;;;;;;;;;5115322;28;19949;-85
2022/04/21 14:54:38;;;;;;;;;;;;;;;;;;5114866;28;20065;-83
2022/04/21 14:57:04;;;;;;;;;;;;;;;;;;5115545;28;19924;-84
2022/04/21 14:59:31;;;;;;;;;;;;;;;;;;5114636;28;19947;-85
2022/04/21 15:01:57;;;;;;;;;;;;;;;;;;5097060;28;19931;-85
2022/04/21 15:04:24;;;;;;;;;;;;;;;;;;5114298;28;20351;-84
2022/04/21 15:06:50;;;;;;;;;;;;;;;;;;5115310;28;19907;-85
2022/04/21 15:09:16;;;;;;;;;;;;;;;;;;5114983;28;19908;-84
2022/04/21 15:11:44;;;;;;;;;;;;;;;;;;5114707;28;19912;-85
2022/04/21 15:14:10;;;;;;;;;;;;;;;;;;5114729;28;19915;-85
2022/04/21 15:16:35;;;;;;;;;;;;;;;;;;5096262;28;20010;-84
2022/04/21 15:19:01;;;;;;;;;;;;;;;;;;5114569;28;19908;-85
2022/04/21 15:21:27;;;;;;;;;;;;;;;;;;5114266;28;19960;-84
2022/04/21 15:23:53;;;;;;;;;;;;;;;;;;5114810;28;20009;-84
2022/04/21 15:26:19;;;;;;;;;;;;;;;;;;5096144;28;20274;-84
2022/04/21 15:28:49;;;;;;;;;;;;;;;;;;5113621;28;19908;-84
2022/04/21 15:31:15;;;;;;;;;;;;;;;;;;5114483;28;20006;-85
2022/04/21 15:33:41;;;;;;;;;;;;;;;;;;5114069;28;19939;-85
2022/04/21 15:36:07;;;;;;;;;;;;;;;;;;5096116;28;19927;-84
2022/04/21 15:38:33;;;;;;;;;;;;;;;;;;5113832;28;19908;-84
2022/04/21 15:40:59;;;;;;;;;;;;;;;;;;5096027;28;20301;-84
2022/04/21 15:43:25;;;;;;;;;;;;;;;;;;5113566;28;20424;-84
2022/04/21 15:45:51;;;;;;;;;;;;;;;;;;5114590;28;19908;-85
2022/04/21 15:48:18;;;;;;;;;;;;;;;;;;5095975;28;20364;-84
2022/04/21 15:50:44;;;;;;;;;;;;;;;;;;5113507;28;20408;-84
2022/04/21 15:58:53;;;;;;;;;;;;;;;;;;5113743;28;19914;-84
2022/04/21 16:01:20;;;;;;;;;;;;;;;;;;5078563;28;20138;-84
2022/04/21 16:03:45;;;;;;;;;;;;;;;;;;5113418;28;19907;-85
2022/04/21 16:06:12;;;;;;;;;;;;;;;;;;5113824;28;20280;-85
2022/04/21 16:08:38;;;;;;;;;;;;;;;;;;5113296;28;20038;-85
2022/04/21 16:11:04;;;;;;;;;;;;;;;;;;5095717;28;19908;-85
2022/04/21 16:13:31;;;;;;;;;;;;;;;;;;5113195;28;19991;-84
2022/04/21 16:15:57;;;;;;;;;;;;;;;;;;5113848;28;19916;-84
2022/04/21 16:18:23;;;;;;;;;;;;;;;;;;5113779;28;19915;-84
2022/04/21 16:20:48;;;;;;;;;;;;;;;;;;5113026;28;20279;-85
2022/04/21 16:23:14;;;;;;;;;;;;;;;;;;5113898;28;20020;-84
2022/04/21 16:25:40;;;;;;;;;;;;;;;;;;5112728;28;20335;-85
2022/04/21 16:28:06;;;;;;;;;;;;;;;;;;5113771;28;19998;-85
2022/04/21 16:30:32;;;;;;;;;;;;;;;;;;5112513;28;19947;-84
2022/04/21 16:32:58;;;;;;;;;;;;;;;;;;5113462;28;20252;-85
2022/04/21 16:35:24;;;;;;;;;;;;;;;;;;5113506;28;19908;-85
2022/04/21 16:37:50;;;;;;;;;;;;;;;;;;5112858;28;19916;-84
2022/04/21 16:40:16;;;;;;;;;;;;;;;;;;5113517;28;20355;-83
2022/04/21 16:42:44;;;;;;;;;;;;;;;;;;5094622;28;19908;-83
2022/04/21 16:45:09;;;;;;;;;;;;;;;;;;5095436;28;19908;-84
2022/04/21 16:47:35;;;;;;;;;;;;;;;;;;5112575;28;19957;-84
2022/04/21 16:50:01;;;;;;;;;;;;;;;;;;5113671;28;19995;-84
2022/04/21 16:52:27;;;;;;;;;;;;;;;;;;5112939;28;19931;-70
2022/04/21 16:54:53;;;;;;;;;;;;;;;;;;5113424;28;19908;-84
2022/04/21 16:57:19;;;;;;;;;;;;;;;;;;5113251;28;19923;-84
2022/04/21 16:59:45;;;;;;;;;;;;;;;;;;5112802;28;19998;-86
2022/04/21 17:04:56;;;;;;;;;;;;;;;;;;5113517;28;19914;-84
2022/04/21 17:07:21;;;;;;;;;;;;;;;;;;5113472;28;19908;-84
2022/04/21 17:09:47;;;;;;;;;;;;;;;;;;5112712;28;20260;-83
2022/04/21 17:12:13;;;;;;;;;;;;;;;;;;5113570;28;19907;-84
2022/04/21 17:14:39;;;;;;;;;;;;;;;;;;5094333;28;19908;-84
2022/04/21 17:17:05;;;;;;;;;;;;;;;;;;5113533;28;20263;-83
2022/04/21 17:19:31;;;;;;;;;;;;;;;;;;5112501;28;20366;-84
2022/04/21 17:21:57;;;;;;;;;;;;;;;;;;5113086;28;19908;-85
2022/04/21 17:24:23;;;;;;;;;;;;;;;;;;5113406;28;19915;-85
2022/04/21 17:26:49;;;;;;;;;;;;;;;;;;5112779;28;20198;-84
2022/04/21 17:29:15;;;;;;;;;;;;;;;;;;5113419;28;19915;-85
2022/04/21 17:31:41;;;;;;;;;;;;;;;;;;5112708;28;20002;-85
2022/04/21 17:34:07;;;;;;;;;;;;;;;;;;5113365;28;19955;-86
2022/04/21 17:36:33;;;;;;;;;;;;;;;;;;5112434;28;20373;-84
2022/04/21 17:38:59;;;;;;;;;;;;;;;;;;5113384;28;19995;-85
2022/04/21 17:41:25;;;;;;;;;;;;;;;;;;5113069;28;19908;-85
2022/04/21 17:43:51;;;;;;;;;;;;;;;;;;5115339;28;20363;-85
2022/04/21 17:46:17;;;;;;;;;;;;;;;;;;5116554;28;19907;-85
2022/04/21 17:48:42;;;;;;;;;;;;;;;;;;5116018;28;19908;-86
2022/04/21 17:51:08;;;;;;;;;;;;;;;;;;5116627;28;19912;-85
2022/04/21 17:53:34;;;;;;;;;;;;;;;;;;5116181;28;19908;-85